Time;durP1;ratioP1;P1;durP2;ratioP2;P2;SDS_P1;SDS_P2;PMS_P1;PMS_P2;Temp;Humidity;BMP_temperature;BMP_pressure;BME280_temperature;BME280_humidity;BME280_pressure;Samples;Min_cycle;Max_cycle;Signal;HPM_P1;HPM_P2
2023/05/21 00:00:59;;;;;;;4.53;3.50;;;;;;;13.65;83.33;101967.41;5065764;28;19991;-71
2023/05/21 00:03:26;;;;;;;7.13;3.97;;;;;;;13.58;83.69;101968.34;5068453;28;20544;-71
2023/05/21 00:05:53;;;;;;;11.98;3.88;;;;;;;13.56;83.40;101965.78;5053844;28;20439;-70
2023/05/21 00:08:19;;;;;;;7.57;3.65;;;;;;;13.57;84.54;101966.66;5061536;28;20311;-70
2023/05/21 00:10:44;;;;;;;4.83;3.83;;;;;;;13.52;84.90;101966.34;5049897;28;20098;-71
2023/05/21 00:13:10;;;;;;;7.03;4.50;;;;;;;13.51;85.27;101964.66;5032262;28;20041;-71
2023/05/21 00:15:35;;;;;;;6.83;3.93;;;;;;;13.46;85.78;101953.34;5063356;28;20510;-71
2023/05/21 00:18:01;;;;;;;5.33;3.97;;;;;;;13.43;85.85;101959.22;5050291;28;20076;-69
2023/05/21 00:20:28;;;;;;;9.60;4.00;;;;;;;13.41;86.78;101959.44;5062999;28;20388;-70
2023/05/21 00:22:53;;;;;;;4.70;3.90;;;;;;;13.39;87.57;101952.41;5065713;28;20032;-70
2023/05/21 00:25:19;;;;;;;10.27;4.63;;;;;;;13.32;87.33;101948.69;5065579;28;20100;-70
2023/05/21 00:27:45;;;;;;;7.80;3.80;;;;;;;13.33;87.96;101954.00;5067250;28;20052;-70
2023/05/21 00:30:10;;;;;;;7.63;3.80;;;;;;;13.37;87.95;101951.72;5062337;28;20035;-70
2023/05/21 00:32:36;;;;;;;7.40;3.93;;;;;;;13.41;87.60;101953.06;5066027;28;20055;-70
2023/05/21 00:35:02;;;;;;;9.20;4.20;;;;;;;13.36;87.42;101955.53;5053056;28;20126;-70
2023/05/21 00:37:32;;;;;;;11.10;4.07;;;;;;;13.37;88.50;101955.34;5064704;28;20032;-71
2023/05/21 00:39:58;;;;;;;9.10;4.25;;;;;;;13.41;88.68;101956.69;5051364;28;20028;-70
2023/05/21 00:42:26;;;;;;;9.17;3.70;;;;;;;13.43;88.50;101959.22;5064228;28;20035;-71
2023/05/21 00:44:53;;;;;;;6.95;4.18;;;;;;;13.46;89.48;101953.34;5049127;28;20045;-71
2023/05/21 00:47:20;;;;;;;;;;;;;;;13.46;89.34;101945.94;5046657;28;20032;-71
2023/05/21 00:49:47;;;;;;;13.77;4.40;;;;;;;13.44;89.64;101939.78;5044008;28;19920;-71
2023/05/21 00:52:12;;;;;;;;;;;;;;;13.48;89.48;101941.13;5066755;28;20552;-71
2023/05/21 00:54:38;;;;;;;10.27;4.82;;;;;;;13.45;89.71;101940.63;5064089;28;20011;-70
2023/05/21 00:57:05;;;;;;;9.67;4.10;;;;;;;13.40;90.16;101935.69;5052090;28;20365;-70
2023/05/21 00:59:32;;;;;;;7.65;4.45;;;;;;;13.38;90.77;101934.16;5061749;28;20031;-70
2023/05/21 01:02:04;;;;;;;6.88;4.80;;;;;;;13.35;91.19;101937.31;5060630;28;20033;-69
2023/05/21 01:04:31;;;;;;;8.88;4.28;;;;;;;13.39;91.50;101942.25;5050649;28;20394;-71
2023/05/21 01:06:58;;;;;;;4.32;3.90;;;;;;;13.45;90.64;101940.63;5062860;28;20451;-70
2023/05/21 01:09:25;;;;;;;9.73;4.25;;;;;;;13.46;90.72;101942.34;5050010;28;20013;-71
2023/05/21 01:11:51;;;;;;;10.30;4.93;;;;;;;13.50;91.44;101943.69;5052170;28;20028;-70
2023/05/21 01:14:18;;;;;;;6.70;4.85;;;;;;;13.44;91.45;101933.44;5065579;28;20032;-71
2023/05/21 01:16:47;;;;;;;6.80;4.35;;;;;;;13.47;92.11;101933.03;5063416;28;20037;-71
2023/05/21 01:19:18;;;;;;;6.10;4.55;;;;;;;13.47;92.12;101935.78;5061664;28;20486;-70
2023/05/21 01:21:55;;;;;;;8.85;4.65;;;;;;;13.49;92.34;101923.53;5046910;28;20077;-71
2023/05/21 01:24:20;;;;;;;5.68;4.28;;;;;;;13.51;92.10;101932.47;5031321;28;20036;-70
2023/05/21 01:26:46;;;;;;;6.30;4.03;;;;;;;13.52;91.77;101930.56;5050608;28;20488;-70
2023/05/21 01:29:13;;;;;;;9.83;4.70;;;;;;;13.57;91.72;101925.34;5062058;28;20362;-70
2023/05/21 01:31:51;;;;;;;;;;;;;;;13.57;91.97;101928.97;5066466;28;20032;-70
2023/05/21 01:34:22;;;;;;;5.35;4.00;;;;;;;13.63;91.45;101930.09;5063987;28;19916;-71
2023/05/21 01:37:07;;;;;;;10.00;3.75;;;;;;;13.63;92.25;101927.34;5064513;28;20476;-70
2023/05/21 01:39:38;;;;;;;7.70;4.05;;;;;;;13.63;92.24;101927.34;5066162;28;20089;-71
2023/05/21 01:42:09;;;;;;;7.00;4.43;;;;;;;13.66;92.37;101932.47;5047708;28;20484;-70
2023/05/21 01:44:36;;;;;;;8.23;4.00;;;;;;;13.70;92.55;101934.66;5023879;28;20600;-70
2023/05/21 01:47:03;;;;;;;7.10;3.95;;;;;;;13.77;91.54;101929.25;5064539;28;20461;-69
2023/05/21 01:49:30;;;;;;;18.60;4.32;;;;;;;13.78;91.73;101926.28;5051438;28;20116;-71
2023/05/21 01:51:56;;;;;;;5.43;3.78;;;;;;;13.83;91.54;101933.97;5066365;28;20476;-70
2023/05/21 01:54:22;;;;;;;4.32;3.28;;;;;;;13.86;91.57;101930.81;5048367;28;20091;-70
2023/05/21 01:56:49;;;;;;;6.38;3.22;;;;;;;13.90;91.20;101932.16;5048182;28;20468;-70
2023/05/21 01:59:16;;;;;;;7.50;3.80;;;;;;;13.90;91.49;101930.25;5064425;28;20509;-70
2023/05/21 02:01:41;;;;;;;8.10;4.82;;;;;;;13.95;91.30;101926.91;5048064;28;20085;-70
2023/05/21 02:04:07;;;;;;;5.40;3.77;;;;;;;13.98;90.69;101916.38;5048600;28;20032;-70
2023/05/21 02:06:34;;;;;;;8.17;4.00;;;;;;;14.03;91.45;101926.81;5063405;28;20075;-70
2023/05/21 02:09:01;;;;;;;5.65;4.18;;;;;;;14.03;91.17;101913.06;5063683;28;20035;-71
2023/05/21 02:11:27;;;;;;;6.80;3.80;;;;;;;14.03;90.81;101919.41;5047685;28;20040;-71
2023/05/21 02:13:53;;;;;;;7.50;3.55;;;;;;;14.07;90.56;101917.97;5033817;28;20036;-70
2023/05/21 02:16:21;;;;;;;7.73;3.93;;;;;;;14.12;90.44;101914.63;5044453;28;20109;-70
2023/05/21 02:18:50;;;;;;;6.70;3.95;;;;;;;14.13;90.58;101919.06;5064972;28;20388;-71
2023/05/21 02:21:15;;;;;;;7.43;3.88;;;;;;;14.11;90.36;101918.44;5061400;28;20028;-71
2023/05/21 02:23:41;;;;;;;4.13;3.73;;;;;;;14.17;89.85;101913.00;5064813;28;20028;-72
2023/05/21 02:26:06;;;;;;;8.60;4.20;;;;;;;14.15;90.83;101917.00;5064394;28;20042;-71
2023/05/21 02:28:33;;;;;;;5.33;3.63;;;;;;;14.13;91.07;101914.44;5064456;28;20033;-72
2023/05/21 02:31:00;;;;;;;7.45;4.05;;;;;;;14.12;91.42;101909.97;5066954;28;20024;-72
2023/05/21 02:33:25;;;;;;;6.68;4.47;;;;;;;14.12;91.62;101911.88;5046511;28;20569;-72
2023/05/21 02:35:51;;;;;;;7.60;3.83;;;;;;;14.16;91.75;101910.44;5065336;28;20071;-71
2023/05/21 02:38:18;;;;;;;6.77;3.67;;;;;;;14.17;91.34;101909.38;5064830;28;20037;-72
2023/05/21 02:40:44;;;;;;;6.65;3.78;;;;;;;14.16;91.59;101907.69;5061805;28;20534;-72
2023/05/21 02:43:10;;;;;;;5.50;4.28;;;;;;;14.17;91.59;101913.00;5062799;28;20384;-72
2023/05/21 02:45:35;;;;;;;6.87;3.70;;;;;;;14.20;91.43;101914.56;5045104;28;20032;-73
2023/05/21 02:48:01;;;;;;;6.13;3.70;;;;;;;14.18;91.75;101900.94;5067873;28;20043;-72
2023/05/21 02:50:28;;;;;;;5.22;3.60;;;;;;;14.21;91.88;101900.59;5067485;28;20059;-72
2023/05/21 02:52:53;;;;;;;6.53;3.67;;;;;;;14.22;91.53;101904.16;5047685;28;20040;-72
2023/05/21 02:55:19;;;;;;;5.50;3.63;;;;;;;14.27;91.40;101909.97;5065313;28;20036;-71
2023/05/21 02:57:45;;;;;;;8.10;4.00;;;;;;;14.26;91.56;101908.25;5054200;28;20042;-73
2023/05/21 03:00:11;;;;;;;10.37;3.80;;;;;;;14.24;91.93;101910.38;5052214;28;20056;-73
2023/05/21 03:02:36;;;;;;;12.70;4.30;;;;;;;14.22;92.08;101912.44;5067493;28;20016;-72
2023/05/21 03:05:05;;;;;;;11.13;4.10;;;;;;;14.27;91.56;101910.81;5050098;28;20020;-72
2023/05/21 03:07:31;;;;;;;4.22;3.50;;;;;;;14.23;91.82;101911.38;5063889;28;20420;-73
2023/05/21 03:09:56;;;;;;;7.10;3.80;;;;;;;14.26;91.74;101906.34;5068313;28;20107;-73
2023/05/21 03:12:22;;;;;;;4.43;3.87;;;;;;;14.24;91.61;101911.19;5052241;28;20033;-72
2023/05/21 03:14:50;;;;;;;5.97;4.37;;;;;;;14.28;91.47;101906.16;5067660;28;20103;-73
2023/05/21 03:17:15;;;;;;;7.20;3.85;;;;;;;14.26;91.95;101895.31;5067291;28;20035;-73
2023/05/21 03:19:42;;;;;;;7.90;4.43;;;;;;;14.34;91.11;101905.34;5047463;28;20017;-71
2023/05/21 03:22:10;;;;;;;8.57;4.43;;;;;;;14.34;91.44;101905.34;5048404;28;20043;-72
2023/05/21 03:24:40;;;;;;;4.38;3.70;;;;;;;14.32;91.73;101901.94;5067614;28;20024;-72
2023/05/21 03:27:06;;;;;;;6.72;4.63;;;;;;;14.33;91.66;101899.00;5048215;28;20025;-73
2023/05/21 03:29:32;;;;;;;7.85;4.25;;;;;;;14.28;92.09;101900.63;5050951;28;20044;-73
2023/05/21 03:32:00;;;;;;;6.97;4.40;;;;;;;14.28;92.16;101892.38;5017632;28;20123;-73
2023/05/21 03:34:26;;;;;;;7.85;4.22;;;;;;;14.24;92.25;101893.81;5047984;28;20052;-73
2023/05/21 03:36:52;;;;;;;8.00;4.33;;;;;;;14.29;92.52;101900.44;5054040;28;20110;-75
2023/05/21 03:39:18;;;;;;;7.78;4.18;;;;;;;14.28;92.59;101895.13;5051037;28;20511;-73
2023/05/21 03:41:44;;;;;;;11.33;4.90;;;;;;;14.26;92.55;101892.56;5071241;28;20048;-74
2023/05/21 03:44:09;;;;;;;4.53;4.13;;;;;;;14.26;92.63;101897.22;5068901;28;20062;-73
2023/05/21 03:46:35;;;;;;;6.70;4.27;;;;;;;14.27;93.16;101899.78;5052029;28;20036;-72
2023/05/21 03:49:01;;;;;;;5.80;4.27;;;;;;;14.26;92.88;101905.50;5046973;28;20480;-73
2023/05/21 03:51:26;;;;;;;6.93;4.80;;;;;;;14.21;93.37;101897.81;5050416;28;20024;-73
2023/05/21 03:53:52;;;;;;;4.97;4.40;;;;;;;14.21;93.67;101899.72;5068025;28;20059;-73
2023/05/21 03:56:17;;;;;;;11.87;4.50;;;;;;;14.20;93.29;101896.09;5070582;28;20040;-74
2023/05/21 03:58:43;;;;;;;9.47;5.13;;;;;;;14.23;93.84;101897.59;5067301;28;20113;-73
2023/05/21 04:01:09;;;;;;;5.33;4.33;;;;;;;14.25;93.47;101896.38;5050392;28;20396;-74
2023/05/21 04:03:35;;;;;;;6.35;4.72;;;;;;;14.25;94.02;101890.84;5067488;28;20033;-73
2023/05/21 04:06:01;;;;;;;9.10;4.60;;;;;;;14.26;93.60;101897.22;5052999;28;20153;-74
2023/05/21 04:08:26;;;;;;;7.18;4.30;;;;;;;14.21;93.92;101895.06;5047384;28;20052;-73
2023/05/21 04:10:52;;;;;;;7.47;4.60;;;;;;;14.21;93.79;101894.22;5052082;28;20432;-73
2023/05/21 04:13:17;;;;;;;17.10;5.53;;;;;;;14.23;93.88;101892.09;5053362;28;20021;-71
2023/05/21 04:15:45;;;;;;;13.13;5.43;;;;;;;14.23;93.92;101883.81;5046593;28;20078;-72
2023/05/21 04:18:15;;;;;;;8.70;5.13;;;;;;;14.27;93.83;101894.28;5065031;28;20035;-72
2023/05/21 04:20:41;;;;;;;7.63;5.00;;;;;;;14.23;93.68;101886.59;5047202;28;20572;-73
2023/05/21 04:23:07;;;;;;;7.30;5.23;;;;;;;14.19;94.18;101885.25;5063282;28;20119;-72
2023/05/21 04:25:33;;;;;;;6.70;4.83;;;;;;;14.18;93.92;101891.78;5068603;28;20047;-72
2023/05/21 04:27:58;;;;;;;7.67;4.87;;;;;;;14.19;93.72;101888.88;5035859;28;20024;-72
2023/05/21 04:30:24;;;;;;;13.03;5.43;;;;;;;14.22;93.73;101890.41;5067222;28;20492;-72
2023/05/21 04:32:51;;;;;;;7.17;4.97;;;;;;;14.23;93.73;101887.44;5031284;28;20035;-73
2023/05/21 04:35:20;;;;;;;6.63;5.07;;;;;;;14.20;94.28;101901.59;5034162;28;20032;-73
2023/05/21 04:37:45;;;;;;;6.47;5.05;;;;;;;14.23;93.48;101897.59;5041815;28;20024;-73
2023/05/21 04:40:23;;;;;;;6.07;4.53;;;;;;;14.26;93.89;101892.56;5067806;28;20577;-72
2023/05/21 04:42:52;;;;;;;10.98;4.85;;;;;;;14.26;93.91;101900.00;5061701;28;20028;-72
2023/05/21 04:45:17;;;;;;;9.43;5.15;;;;;;;14.29;93.77;101888.56;5063981;28;20053;-72
2023/05/21 04:47:43;;;;;;;13.43;5.03;;;;;;;14.29;93.45;101888.56;5065034;28;20074;-73
2023/05/21 04:50:11;;;;;;;8.63;5.30;;;;;;;14.29;93.67;101892.19;5049876;28;20037;-72
2023/05/21 04:52:39;;;;;;;5.95;4.80;;;;;;;14.33;93.18;101887.97;5062029;28;20121;-73
2023/05/21 04:55:05;;;;;;;7.70;4.95;;;;;;;14.35;93.32;101893.31;5065960;28;20039;-72
2023/05/21 04:57:31;;;;;;;7.40;5.55;;;;;;;14.40;93.41;101893.56;5049260;28;20032;-72
2023/05/21 04:59:56;;;;;;;7.83;5.17;;;;;;;14.42;93.45;101896.97;5064831;28;20036;-73
2023/05/21 05:02:22;;;;;;;7.93;5.57;;;;;;;14.41;92.87;101890.59;5065625;28;20024;-73
2023/05/21 05:04:47;;;;;;;10.40;5.00;;;;;;;14.52;92.76;101892.00;5049163;28;20025;-73
2023/05/21 05:07:13;;;;;;;13.60;5.10;;;;;;;14.54;92.31;101898.16;5046301;28;20036;-72
2023/05/21 05:09:39;;;;;;;11.95;5.28;;;;;;;14.62;91.86;101898.03;5065705;28;20024;-73
2023/05/21 05:12:05;;;;;;;11.77;5.07;;;;;;;14.61;91.78;101897.16;5063857;28;20043;-72
2023/05/21 05:14:30;;;;;;;5.83;4.50;;;;;;;14.67;91.50;101898.28;5062300;28;20029;-73
2023/05/21 05:16:59;;;;;;;8.35;5.45;;;;;;;14.66;91.35;101888.28;5062055;28;20056;-73
2023/05/21 05:19:27;;;;;;;12.77;5.30;;;;;;;14.70;91.14;101895.13;5064510;28;20060;-73
2023/05/21 05:21:53;;;;;;;10.48;5.43;;;;;;;14.73;91.15;101886.47;5066107;28;20033;-73
2023/05/21 05:24:18;;;;;;;9.83;4.77;;;;;;;14.80;90.89;101884.59;5049552;28;20051;-74
2023/05/21 05:26:44;;;;;;;11.03;4.97;;;;;;;14.92;90.46;101894.03;5063179;28;20089;-74
2023/05/21 05:29:09;;;;;;;6.53;5.00;;;;;;;14.84;90.59;101880.41;5030998;28;20764;-74
2023/05/21 05:31:35;;;;;;;6.97;5.07;;;;;;;14.92;90.03;101870.06;5067030;28;20031;-74
2023/05/21 05:34:00;;;;;;;10.13;5.33;;;;;;;14.96;90.06;101884.31;5065677;28;20396;-74
2023/05/21 05:36:25;;;;;;;6.67;4.70;;;;;;;15.00;89.89;101880.94;5063091;28;20085;-74
2023/05/21 05:38:51;;;;;;;6.63;4.80;;;;;;;15.02;90.05;101883.50;5046402;28;20458;-74
2023/05/21 05:41:16;;;;;;;9.13;4.77;;;;;;;15.10;89.64;101875.91;5063910;28;20411;-74
2023/05/21 05:43:42;;;;;;;15.10;5.43;;;;;;;15.07;89.70;101881.00;5066898;28;20458;-74
2023/05/21 05:46:07;;;;;;;11.00;5.57;;;;;;;15.17;89.49;101878.75;5065169;28;20037;-74
2023/05/21 05:48:33;;;;;;;8.57;4.83;;;;;;;15.11;89.78;101888.66;5047163;28;20032;-74
2023/05/21 05:50:58;;;;;;;10.60;5.17;;;;;;;15.16;89.57;101879.78;5063588;28;20044;-74
2023/05/21 05:53:24;;;;;;;9.47;5.83;;;;;;;15.17;89.06;101868.56;5066008;28;20040;-74
2023/05/21 05:55:49;;;;;;;6.70;5.23;;;;;;;15.28;89.28;101875.41;5067530;28;20025;-74
2023/05/21 05:58:15;;;;;;;6.67;5.27;;;;;;;15.39;88.48;101878.50;5063095;28;20024;-74
2023/05/21 06:00:40;;;;;;;7.80;5.17;;;;;;;15.47;88.55;101883.00;5060420;28;20091;-74
2023/05/21 06:03:06;;;;;;;10.73;5.30;;;;;;;15.62;87.79;101880.94;5064316;28;20024;-74
2023/05/21 06:05:31;;;;;;;10.80;4.83;;;;;;;15.68;87.55;101880.97;5066560;28;20031;-74
2023/05/21 06:07:56;;;;;;;6.17;5.13;;;;;;;15.74;86.78;101882.91;5064353;28;20059;-74
2023/05/21 06:10:22;;;;;;;5.33;4.57;;;;;;;15.82;86.63;101881.91;5065214;28;20042;-74
2023/05/21 06:12:47;;;;;;;9.13;4.60;;;;;;;15.85;86.90;101882.31;5060129;28;20099;-74
2023/05/21 06:15:13;;;;;;;10.83;5.30;;;;;;;15.85;86.48;101882.31;5047674;28;20037;-74
2023/05/21 06:17:39;;;;;;;7.20;4.78;;;;;;;15.87;86.26;101882.13;5066144;28;20553;-74
2023/05/21 06:20:07;;;;;;;5.87;4.73;;;;;;;16.00;86.42;101885.78;5065046;28;20104;-74
2023/05/21 06:22:33;;;;;;;8.38;5.90;;;;;;;16.09;85.61;101884.56;5064678;28;20104;-74
2023/05/21 06:24:59;;;;;;;10.37;5.17;;;;;;;16.28;85.03;101888.44;5048791;28;20077;-74
2023/05/21 06:27:24;;;;;;;11.73;5.57;;;;;;;16.17;84.81;101889.06;5065821;28;20041;-73
2023/05/21 06:29:50;;;;;;;8.27;4.80;;;;;;;16.20;84.38;101891.38;5070236;28;20391;-73
2023/05/21 06:32:15;;;;;;;7.53;4.57;;;;;;;16.27;84.50;101892.28;5065327;28;20027;-74
2023/05/21 06:34:41;;;;;;;6.40;4.80;;;;;;;16.33;84.51;101886.72;5066913;28;20031;-73
2023/05/21 06:37:06;;;;;;;8.77;5.03;;;;;;;16.23;84.69;101885.44;5052304;28;20039;-73
2023/05/21 06:39:31;;;;;;;12.50;4.77;;;;;;;16.26;84.81;101885.00;5049236;28;20028;-73
2023/05/21 06:41:57;;;;;;;6.40;4.97;;;;;;;16.25;84.67;101878.66;5049843;28;20768;-73
2023/05/21 06:44:22;;;;;;;9.97;5.10;;;;;;;16.38;84.51;101888.91;5068896;28;20515;-73
2023/05/21 06:46:47;;;;;;;7.17;5.10;;;;;;;16.23;85.19;101891.81;5069517;28;20107;-73
2023/05/21 06:49:13;;;;;;;14.03;5.57;;;;;;;16.19;85.16;101890.53;5065265;28;20458;-73
2023/05/21 06:51:39;;;;;;;13.03;5.47;;;;;;;16.16;84.92;101884.59;5064587;28;20024;-73
2023/05/21 06:54:04;;;;;;;6.50;5.10;;;;;;;16.21;85.51;101882.03;5051843;28;20453;-73
2023/05/21 06:56:30;;;;;;;10.33;5.30;;;;;;;16.30;84.73;101886.31;5063668;28;20472;-73
2023/05/21 06:58:55;;;;;;;13.83;5.53;;;;;;;16.43;84.93;101878.09;5048842;28;20476;-74
2023/05/21 07:01:22;;;;;;;9.20;5.33;;;;;;;16.41;84.67;101878.28;5068226;28;20435;-73
2023/05/21 07:03:47;;;;;;;9.57;5.20;;;;;;;16.65;83.86;101882.38;5066032;28;20161;-73
2023/05/21 07:06:13;;;;;;;6.43;5.17;;;;;;;16.70;84.00;101888.13;5064811;28;20033;-72
2023/05/21 07:08:38;;;;;;;8.13;5.33;;;;;;;16.91;83.45;101887.91;5070219;28;20025;-72
2023/05/21 07:11:04;;;;;;;10.70;5.60;;;;;;;16.86;82.76;101887.69;5065277;28;20370;-71
2023/05/21 07:13:29;;;;;;;9.53;5.70;;;;;;;16.76;82.25;101893.63;5061288;28;20989;-72
2023/05/21 07:15:55;;;;;;;11.93;5.17;;;;;;;16.73;81.99;101885.78;5066701;28;20036;-73
2023/05/21 07:18:20;;;;;;;11.37;7.17;;;;;;;16.79;82.35;101881.28;5066359;28;20024;-73
2023/05/21 07:20:46;;;;;;;8.57;5.70;;;;;;;16.88;82.96;101888.31;5063426;28;20485;-73
2023/05/21 07:23:11;;;;;;;8.60;5.87;;;;;;;16.92;82.43;101892.38;5051834;28;20035;-73
2023/05/21 07:25:36;;;;;;;7.97;5.63;;;;;;;16.97;81.97;101900.91;5068833;28;20444;-73
2023/05/21 07:28:02;;;;;;;9.20;5.83;;;;;;;17.01;81.48;101894.72;5048993;28;20177;-73
2023/05/21 07:30:27;;;;;;;10.67;5.97;;;;;;;17.12;81.54;101887.69;5065166;28;20039;-73
2023/05/21 07:32:53;;;;;;;6.67;5.87;;;;;;;17.20;80.94;101895.75;5046385;28;20422;-73
2023/05/21 07:35:18;;;;;;;9.43;5.67;;;;;;;17.31;80.27;101892.34;5047761;28;20024;-73
2023/05/21 07:37:45;;;;;;;8.50;5.50;;;;;;;17.26;81.06;101892.13;5064861;28;20774;-73
2023/05/21 07:40:11;;;;;;;13.80;6.78;;;;;;;17.13;80.87;101887.44;5065287;28;20027;-73
2023/05/21 07:42:36;;;;;;;9.45;6.50;;;;;;;17.25;80.82;101880.22;5062543;28;20056;-73
2023/05/21 07:45:02;;;;;;;14.07;6.63;;;;;;;17.29;80.27;101881.47;5066398;28;20116;-73
2023/05/21 07:47:27;;;;;;;12.77;6.27;;;;;;;17.36;80.25;101879.56;5043959;28;20037;-73
2023/05/21 07:49:52;;;;;;;15.33;6.30;;;;;;;17.36;80.21;101887.00;5067071;28;20078;-73
2023/05/21 07:52:18;;;;;;;11.00;6.17;;;;;;;17.48;80.14;101883.38;5068583;28;20024;-73
2023/05/21 07:54:43;;;;;;;11.13;6.27;;;;;;;17.68;79.71;101880.56;5048886;28;20020;-73
2023/05/21 07:57:09;;;;;;;11.27;5.90;;;;;;;17.73;79.82;101876.06;5067493;28;20508;-73
2023/05/21 07:59:34;;;;;;;13.63;6.17;;;;;;;17.87;79.23;101874.09;5066395;28;20029;-72
2023/05/21 08:01:59;;;;;;;17.03;7.27;;;;;;;17.87;78.98;101874.94;5065196;28;20028;-72
2023/05/21 08:04:25;;;;;;;11.03;7.10;;;;;;;17.97;77.87;101871.69;5070243;28;20173;-75
2023/05/21 08:06:51;;;;;;;6.40;5.55;;;;;;;17.77;77.45;101876.47;5064507;28;20036;-73
2023/05/21 08:09:18;;;;;;;10.23;6.30;;;;;;;18.01;78.07;101870.19;5063967;28;20041;-74
2023/05/21 08:11:44;;;;;;;23.52;6.00;;;;;;;18.04;77.45;101866.97;5046225;28;20085;-74
2023/05/21 08:14:10;;;;;;;10.35;6.15;;;;;;;17.99;77.95;101866.78;5061048;28;20426;-73
2023/05/21 08:16:36;;;;;;;13.50;6.50;;;;;;;17.95;78.31;101871.06;5061729;28;20036;-74
2023/05/21 08:19:01;;;;;;;11.37;6.53;;;;;;;18.07;77.96;101863.75;5067032;28;20028;-74
2023/05/21 08:21:27;;;;;;;9.47;6.70;;;;;;;18.25;77.33;101867.47;5048715;28;20040;-74
2023/05/21 08:23:52;;;;;;;9.87;7.00;;;;;;;18.26;76.44;101868.34;5051863;28;20031;-74
2023/05/21 08:26:18;;;;;;;9.87;6.67;;;;;;;18.19;75.91;101867.53;5050665;28;20032;-74
2023/05/21 08:28:44;;;;;;;14.50;6.43;;;;;;;18.23;75.04;101866.84;5067764;28;20037;-74
2023/05/21 08:31:09;;;;;;;10.53;6.40;;;;;;;18.30;76.32;101870.44;5065477;28;20130;-74
2023/05/21 08:33:37;;;;;;;11.80;6.50;;;;;;;18.50;75.23;101868.41;5064752;28;20061;-74
2023/05/21 08:36:05;;;;;;;8.65;6.20;;;;;;;18.71;75.97;101861.63;5063596;28;20380;-74
2023/05/21 08:38:30;;;;;;;9.13;7.25;;;;;;;19.02;74.80;101848.56;5066703;28;20092;-73
2023/05/21 08:40:57;;;;;;;8.20;6.00;;;;;;;19.11;73.41;101860.22;5063672;28;20392;-74
2023/05/21 08:43:23;;;;;;;;;;;;;;;19.35;72.99;101862.13;5049698;28;20039;-74
2023/05/21 08:45:54;;;;;;;11.25;7.55;;;;;;;19.02;72.72;101861.59;5050032;28;20005;-74
2023/05/21 08:48:22;;;;;;;9.00;7.07;;;;;;;19.28;72.77;101847.47;5065722;28;20137;-74
2023/05/21 08:50:49;;;;;;;9.25;6.90;;;;;;;19.04;72.99;101851.94;5065294;28;20032;-74
2023/05/21 08:53:15;;;;;;;20.98;7.28;;;;;;;19.17;72.42;101864.88;5061464;28;20036;-75
2023/05/21 08:55:41;;;;;;;8.23;6.77;;;;;;;19.37;71.58;101854.44;5064210;28;20025;-74
2023/05/21 08:58:07;;;;;;;19.58;6.68;;;;;;;19.41;71.91;101858.44;5066477;28;20045;-74
2023/05/21 09:00:32;;;;;;;12.37;7.27;;;;;;;19.61;71.46;101850.72;5064846;28;20028;-74
2023/05/21 09:02:59;;;;;;;11.20;7.57;;;;;;;19.39;70.97;101857.81;5045897;28;20442;-74
2023/05/21 09:05:26;;;;;;;10.57;7.07;;;;;;;19.23;71.16;101858.41;5064236;28;20029;-74
2023/05/21 09:08:12;;;;;;;15.13;7.68;;;;;;;19.39;70.40;101853.13;5043926;28;20153;-72
2023/05/21 09:10:44;;;;;;;11.10;7.40;;;;;;;19.17;70.05;101857.41;5046773;28;20076;-73
2023/05/21 09:13:10;;;;;;;11.98;7.32;;;;;;;19.52;70.04;101847.41;5058593;28;20032;-72
2023/05/21 09:15:36;;;;;;;17.08;6.90;;;;;;;19.93;68.18;101846.69;5062257;28;20024;-74
2023/05/21 09:18:01;;;;;;;13.37;7.30;;;;;;;19.76;68.64;101845.63;5064284;28;20024;-74
2023/05/21 09:20:27;;;;;;;10.60;6.47;;;;;;;19.81;68.94;101843.88;5061398;28;20052;-73
2023/05/21 09:22:54;;;;;;;8.85;6.65;;;;;;;20.32;67.84;101846.19;5063108;28;20107;-73
2023/05/21 09:25:22;;;;;;;13.50;7.32;;;;;;;20.05;66.93;101842.03;5062299;28;20033;-73
2023/05/21 09:27:47;;;;;;;8.82;6.28;;;;;;;20.28;66.78;101839.38;5046452;28;20086;-73
2023/05/21 09:30:15;;;;;;;13.07;6.97;;;;;;;20.45;66.52;101843.19;5065845;28;20484;-74
2023/05/21 09:32:40;;;;;;;9.77;6.30;;;;;;;20.71;65.54;101848.34;5060005;28;20108;-73
2023/05/21 09:35:10;;;;;;;10.75;6.63;;;;;;;20.88;64.77;101846.53;5050023;28;20120;-74
2023/05/21 09:37:40;;;;;;;10.80;6.53;;;;;;;20.86;64.08;101845.94;5043243;28;20103;-74
2023/05/21 09:40:14;;;;;;;11.93;6.55;;;;;;;20.76;64.50;101842.91;5064121;28;20021;-73
2023/05/21 09:42:40;;;;;;;6.68;5.32;;;;;;;21.56;64.02;101834.53;5058272;28;20045;-73
2023/05/21 09:45:10;;;;;;;12.32;6.78;;;;;;;21.60;62.61;101835.75;5045121;28;20040;-77
2023/05/21 09:47:42;;;;;;;8.63;6.22;;;;;;;21.64;61.69;101844.47;5047821;28;20060;-71
2023/05/21 09:50:12;;;;;;;12.90;6.50;;;;;;;21.72;62.28;101830.19;5063163;28;20020;-70
2023/05/21 09:52:38;;;;;;;13.23;6.07;;;;;;;21.57;62.64;101835.41;5065231;28;20437;-69
2023/05/21 09:55:05;;;;;;;9.17;6.97;;;;;;;21.37;61.10;101837.72;5059825;28;20021;-70
2023/05/21 09:57:31;;;;;;;10.50;7.03;;;;;;;21.16;62.68;101836.41;5061511;28;21564;-70
2023/05/21 09:59:57;;;;;;;10.40;6.40;;;;;;;21.24;64.24;101838.00;5068180;28;20052;-70
2023/05/21 10:02:23;;;;;;;10.02;5.95;;;;;;;21.70;62.40;101832.38;5065858;28;20648;-70
2023/05/21 10:04:50;;;;;;;8.88;6.57;;;;;;;21.61;62.17;101826.28;5043438;28;20107;-70
2023/05/21 10:07:20;;;;;;;10.23;7.43;;;;;;;22.02;61.70;101828.88;5061107;28;20037;-71
2023/05/21 10:09:47;;;;;;;12.50;6.80;;;;;;;21.91;61.22;101818.63;5067535;28;20115;-70
2023/05/21 10:12:16;;;;;;;10.75;6.47;;;;;;;21.72;62.84;101822.66;5068814;28;20575;-70
2023/05/21 10:14:49;;;;;;;15.50;7.68;;;;;;;21.29;63.24;101813.03;5048544;28;20021;-69
2023/05/21 10:17:15;;;;;;;14.18;7.05;;;;;;;21.42;63.11;101809.97;5068074;28;20371;-70
2023/05/21 10:19:41;;;;;;;12.48;6.57;;;;;;;22.01;63.27;101823.53;5063919;28;20496;-70
2023/05/21 10:22:08;;;;;;;9.02;6.82;;;;;;;22.05;62.09;101813.59;5066092;28;20035;-70
2023/05/21 10:24:33;;;;;;;;;;;;;;;22.30;60.78;101814.09;5060614;28;20641;-70
2023/05/21 10:27:01;;;;;;;9.30;6.90;;;;;;;21.81;61.55;101823.13;5063695;28;19927;-70
2023/05/21 10:29:27;;;;;;;10.85;7.43;;;;;;;21.85;62.61;101816.81;5064473;28;20028;-70
2023/05/21 10:31:52;;;;;;;;;;;;;;;21.75;62.08;101824.97;5066209;28;20047;-70
2023/05/21 10:34:20;;;;;;;9.70;7.20;;;;;;;21.55;62.88;101820.88;5066316;28;19913;-70
2023/05/21 10:36:48;;;;;;;11.10;7.38;;;;;;;21.75;62.90;101824.09;5062224;28;20430;-69
2023/05/21 10:39:15;;;;;;;9.70;6.60;;;;;;;22.00;61.94;101817.13;5058176;28;20024;-70
2023/05/21 10:41:55;;;;;;;12.85;6.90;;;;;;;22.35;61.17;101819.78;5060659;28;20032;-71
2023/05/21 10:44:51;;;;;;;12.43;6.90;;;;;;;22.36;60.20;101818.66;5065380;28;20061;-70
2023/05/21 10:48:04;;;;;;;11.25;7.03;;;;;;;22.61;60.32;101810.75;5047504;28;20535;-69
2023/05/21 10:51:01;;;;;;;14.23;5.90;;;;;;;22.70;60.40;101801.72;5051093;28;20051;-69
2023/05/21 10:54:03;;;;;;;8.52;6.60;;;;;;;23.05;58.10;101809.84;5064515;28;20059;-71
2023/05/21 10:56:42;;;;;;;11.18;6.65;;;;;;;22.54;59.74;101804.50;5047207;28;20063;-70
2023/05/21 10:59:28;;;;;;;11.55;6.50;;;;;;;23.07;58.16;101799.22;5063939;28;20055;-70
2023/05/21 11:01:55;;;;;;;12.23;6.75;;;;;;;22.80;59.65;101795.44;5066483;28;20025;-70
2023/05/21 11:04:22;;;;;;;9.73;5.82;;;;;;;22.42;59.71;101786.94;5047292;28;20067;-70
2023/05/21 11:06:48;;;;;;;11.45;6.70;;;;;;;22.76;59.32;101783.06;5049240;28;20032;-71
2023/05/21 11:09:14;;;;;;;8.27;6.33;;;;;;;22.42;59.46;101786.94;5067285;28;20055;-70
2023/05/21 11:11:44;;;;;;;11.27;6.97;;;;;;;22.36;59.87;101776.78;5062531;28;21006;-70
2023/05/21 11:14:35;;;;;;;12.85;6.55;;;;;;;22.42;60.37;101776.59;5060215;28;20532;-70
2023/05/21 11:17:14;;;;;;;9.32;6.38;;;;;;;22.78;59.34;101780.91;5041789;28;20130;-72
2023/05/21 11:19:40;;;;;;;7.32;5.85;;;;;;;22.66;59.54;101778.19;5067671;28;20422;-70
2023/05/21 11:22:21;;;;;;;10.63;6.97;;;;;;;22.57;59.61;101784.44;5067818;28;20035;-70
2023/05/21 11:24:47;;;;;;;10.48;6.47;;;;;;;22.45;60.31;101776.13;5065472;28;20036;-71